createdAt,value
2023-03-11T00:01:05.570Z,6.38
2023-03-11T00:03:32.458Z,6.45
2023-03-11T00:06:01.832Z,6.53
2023-03-11T00:08:29.008Z,7.00
2023-03-11T00:10:58.989Z,6.60
2023-03-11T00:13:27.313Z,6.47
2023-03-11T00:15:59.758Z,5.93
2023-03-11T00:18:30.329Z,6.72
2023-03-11T00:20:59.127Z,6.78
2023-03-11T00:23:27.133Z,5.95
2023-03-11T00:25:54.641Z,6.78
2023-03-11T00:28:25.642Z,6.28
2023-03-11T00:30:52.877Z,5.85
2023-03-11T00:33:19.877Z,5.00
2023-03-11T00:35:46.719Z,5.30
2023-03-11T00:38:16.214Z,5.53
2023-03-11T00:40:45.012Z,4.95
2023-03-11T00:43:12.963Z,5.18
2023-03-11T00:45:40.308Z,4.80
2023-03-11T00:48:08.210Z,4.70
2023-03-11T00:50:37.184Z,5.38
2023-03-11T00:53:05.268Z,4.40
2023-03-11T00:55:34.711Z,5.15
2023-03-11T00:58:05.947Z,5.07
2023-03-11T01:00:33.122Z,4.90
2023-03-11T01:03:00.568Z,4.75
2023-03-11T01:05:31.272Z,5.07
2023-03-11T01:07:58.997Z,4.90
2023-03-11T01:10:26.364Z,5.15
2023-03-11T01:12:53.327Z,4.82
2023-03-11T01:15:31.217Z,5.05
2023-03-11T01:17:58.257Z,4.70
2023-03-11T01:20:25.589Z,4.47
2023-03-11T01:22:52.731Z,4.70
2023-03-11T01:25:21.634Z,4.95
2023-03-11T01:27:48.688Z,4.68
2023-03-11T01:30:19.319Z,4.88
2023-03-11T01:32:46.844Z,5.45
2023-03-11T01:35:40.218Z,5.15
2023-03-11T01:38:07.115Z,4.97
2023-03-11T01:40:44.311Z,4.15
2023-03-11T01:43:41.467Z,4.25
2023-03-11T01:46:33.626Z,4.20
2023-03-11T01:49:03.369Z,4.20
2023-03-11T01:51:41.981Z,4.63
2023-03-11T01:54:30.635Z,4.57
2023-03-11T01:56:59.672Z,4.75
2023-03-11T01:59:32.082Z,4.65
2023-03-11T02:02:20.305Z,4.63
2023-03-11T02:04:48.842Z,5.00
2023-03-11T02:07:16.113Z,4.60
2023-03-11T02:09:43.242Z,5.35
2023-03-11T02:12:13.805Z,4.85
2023-03-11T02:14:46.140Z,4.70
2023-03-11T02:17:13.810Z,4.60
2023-03-11T02:20:19.787Z,3.95
2023-03-11T02:22:48.777Z,4.30
2023-03-11T02:25:32.668Z,3.78
2023-03-11T02:28:01.395Z,3.63
2023-03-11T02:30:29.530Z,3.13
2023-03-11T02:32:56.830Z,2.92
2023-03-11T02:35:24.152Z,2.70
2023-03-11T02:37:53.265Z,3.00
2023-03-11T02:40:24.623Z,2.85
2023-03-11T02:42:56.393Z,2.35
2023-03-11T02:45:30.404Z,2.55
2023-03-11T02:48:00.011Z,2.47
2023-03-11T02:50:30.677Z,2.00
2023-03-11T02:52:57.745Z,2.25
2023-03-11T02:55:25.098Z,1.88
2023-03-11T02:57:52.014Z,1.90
2023-03-11T03:00:19.570Z,1.67
2023-03-11T03:02:47.367Z,2.10
2023-03-11T03:05:14.329Z,1.88
2023-03-11T03:07:53.271Z,1.40
2023-03-11T03:10:22.575Z,1.60
2023-03-11T03:12:49.953Z,1.58
2023-03-11T03:15:17.282Z,1.40
2023-03-11T03:17:44.669Z,1.52
2023-03-11T03:20:14.438Z,1.40
2023-03-11T03:22:42.413Z,1.67
2023-03-11T03:25:10.581Z,1.83
2023-03-11T03:27:39.798Z,2.20
2023-03-11T03:30:07.851Z,1.50
2023-03-11T03:32:36.045Z,1.30
2023-03-11T03:35:09.750Z,1.40
2023-03-11T03:37:37.672Z,1.45
2023-03-11T03:40:08.500Z,1.30
2023-03-11T03:42:37.768Z,1.80
2023-03-11T03:45:07.351Z,1.58
2023-03-11T03:47:35.679Z,1.88
2023-03-11T03:50:05.442Z,1.65
2023-03-11T03:52:32.557Z,2.03
2023-03-11T03:55:02.878Z,1.58
2023-03-11T03:57:30.147Z,1.83
2023-03-11T03:59:57.126Z,1.52
2023-03-11T04:02:24.489Z,1.30
2023-03-11T04:04:51.849Z,1.38
2023-03-11T04:07:24.655Z,1.30
2023-03-11T04:09:53.260Z,1.20
2023-03-11T04:12:20.348Z,1.20
2023-03-11T04:14:47.452Z,1.27
2023-03-11T04:17:18.022Z,1.00
2023-03-11T04:19:45.385Z,1.10
2023-03-11T04:22:12.453Z,1.27
2023-03-11T04:24:39.294Z,1.20
2023-03-11T04:27:06.414Z,1.30
2023-03-11T04:29:33.491Z,0.90
2023-03-11T04:32:00.943Z,1.45
2023-03-11T04:34:27.885Z,1.17
2023-03-11T04:36:56.573Z,1.10
2023-03-11T04:39:23.652Z,1.33
2023-03-11T04:41:51.935Z,1.17
2023-03-11T04:44:19.590Z,1.20
2023-03-11T04:46:46.637Z,1.30
2023-03-11T04:49:13.906Z,1.55
2023-03-11T04:51:42.936Z,1.33
2023-03-11T04:54:10.253Z,1.20
2023-03-11T04:56:37.283Z,1.10
2023-03-11T04:59:04.402Z,1.23
2023-03-11T05:01:31.765Z,1.33
2023-03-11T05:03:58.718Z,1.40
2023-03-11T05:06:25.785Z,0.90
2023-03-11T05:08:52.756Z,0.75
2023-03-11T05:11:19.670Z,0.70
2023-03-11T05:13:55.322Z,0.90
2023-03-11T05:16:22.393Z,1.20
2023-03-11T05:18:49.386Z,0.80
2023-03-11T05:21:16.504Z,0.90
2023-03-11T05:23:44.881Z,0.90
2023-03-11T05:26:12.752Z,0.93
2023-03-11T05:28:40.249Z,1.02
2023-03-11T05:31:11.208Z,1.15
2023-03-11T05:33:38.596Z,1.08
2023-03-11T05:36:11.590Z,1.00
2023-03-11T05:38:38.966Z,1.10
2023-03-11T05:41:06.678Z,1.50
2023-03-11T05:43:33.888Z,2.00
2023-03-11T05:46:00.960Z,2.53
2023-03-11T05:48:28.613Z,2.78
2023-03-11T05:50:55.720Z,2.40
2023-03-11T05:53:22.952Z,1.90
2023-03-11T05:55:59.900Z,1.58
2023-03-11T05:58:28.040Z,1.67
2023-03-11T06:00:55.110Z,1.80
2023-03-11T06:03:22.515Z,1.55
2023-03-11T06:05:51.182Z,1.50
2023-03-11T06:08:19.480Z,1.92
2023-03-11T06:10:48.853Z,5.10
2023-03-11T06:13:16.172Z,21.13
2023-03-11T06:15:46.184Z,35.80
2023-03-11T06:18:13.464Z,30.38
2023-03-11T06:20:40.425Z,37.45
2023-03-11T06:23:07.396Z,37.35
2023-03-11T06:25:34.493Z,36.60
2023-03-11T06:28:01.425Z,25.38
2023-03-11T06:30:28.670Z,17.58
2023-03-11T06:32:55.969Z,8.75
2023-03-11T06:35:25.465Z,8.40
2023-03-11T06:37:52.837Z,10.35
2023-03-11T06:40:20.121Z,9.15
2023-03-11T06:42:50.465Z,7.10
2023-03-11T06:45:19.590Z,8.20
2023-03-11T06:47:47.485Z,7.65
2023-03-11T06:50:14.400Z,6.90
2023-03-11T06:52:41.898Z,5.80
2023-03-11T06:55:09.525Z,6.80
2023-03-11T06:57:36.865Z,7.82
2023-03-11T07:00:06.954Z,6.68
2023-03-11T07:02:33.978Z,8.05
2023-03-11T07:05:01.266Z,7.80
2023-03-11T07:07:28.341Z,5.70
2023-03-11T07:09:58.459Z,5.28
2023-03-11T07:12:25.997Z,5.43
2023-03-11T07:14:57.182Z,4.32
2023-03-11T07:17:25.360Z,4.80
2023-03-11T07:20:11.393Z,3.88
2023-03-11T07:22:38.380Z,3.50
2023-03-11T07:25:05.856Z,3.30
2023-03-11T07:27:32.885Z,4.70
2023-03-11T07:30:01.946Z,4.75
2023-03-11T07:32:29.086Z,6.25
2023-03-11T07:34:57.116Z,4.07
2023-03-11T07:37:24.077Z,4.95
2023-03-11T07:39:51.109Z,7.03
2023-03-11T07:42:18.029Z,10.27
2023-03-11T07:44:45.032Z,13.85
2023-03-11T07:47:11.898Z,8.70
2023-03-11T07:49:38.954Z,8.70
2023-03-11T07:52:06.655Z,7.53
2023-03-11T07:54:33.653Z,7.55
2023-03-11T07:57:00.675Z,7.63
2023-03-11T07:59:28.472Z,6.93
2023-03-11T08:01:57.154Z,7.47
2023-03-11T08:04:24.464Z,8.52
2023-03-11T08:06:51.422Z,7.82
2023-03-11T08:09:18.462Z,8.05
2023-03-11T08:11:45.512Z,7.30
2023-03-11T08:14:12.414Z,7.22
2023-03-11T08:16:41.426Z,7.55
2023-03-11T08:19:13.915Z,6.03
2023-03-11T08:21:41.273Z,6.30
2023-03-11T08:24:10.878Z,7.53
2023-03-11T08:26:37.793Z,8.85
2023-03-11T08:29:04.910Z,11.32
2023-03-11T08:31:35.310Z,10.02
2023-03-11T08:34:07.704Z,9.35
2023-03-11T08:36:35.965Z,7.82
2023-03-11T08:39:03.751Z,7.60
2023-03-11T08:41:30.788Z,10.43
2023-03-11T08:43:59.036Z,8.30
2023-03-11T08:46:28.125Z,6.03
2023-03-11T08:48:56.096Z,5.18
2023-03-11T08:51:23.886Z,6.30
2023-03-11T08:53:51.893Z,5.90
2023-03-11T08:56:19.656Z,7.80
2023-03-11T08:58:47.225Z,7.78
2023-03-11T09:01:14.168Z,7.43
2023-03-11T09:03:44.344Z,7.65
2023-03-11T09:06:15.772Z,6.78
2023-03-11T09:08:44.172Z,5.97
2023-03-11T09:11:13.692Z,7.28
2023-03-11T09:13:42.617Z,8.55
2023-03-11T09:16:20.359Z,12.80
2023-03-11T09:18:47.861Z,9.00
2023-03-11T09:21:19.019Z,5.95
2023-03-11T09:23:46.186Z,5.78
2023-03-11T09:26:14.215Z,4.57
2023-03-11T09:28:42.494Z,4.35
2023-03-11T09:31:09.866Z,4.93
2023-03-11T09:33:39.459Z,4.20
2023-03-11T09:36:07.777Z,4.95
2023-03-11T09:38:34.833Z,4.97
2023-03-11T09:41:14.157Z,4.45
2023-03-11T09:43:56.261Z,5.55
2023-03-11T09:46:49.335Z,4.95
2023-03-11T09:49:53.690Z,6.10
2023-03-11T09:53:09.445Z,4.95
2023-03-11T09:55:44.767Z,6.25
2023-03-11T09:58:23.995Z,6.05
2023-03-11T10:00:54.009Z,8.73
2023-03-11T10:03:39.744Z,6.35
2023-03-11T10:06:15.387Z,7.53
2023-03-11T10:09:03.411Z,7.18
2023-03-11T10:11:45.065Z,7.25
2023-03-11T10:14:12.117Z,9.82
2023-03-11T10:17:17.662Z,6.82
2023-03-11T10:20:02.411Z,7.63
2023-03-11T10:22:51.654Z,8.00
2023-03-11T10:25:57.532Z,3.03
2023-03-11T10:28:39.482Z,2.58
2023-03-11T10:31:20.567Z,3.17
2023-03-11T10:34:03.284Z,3.20
2023-03-11T10:36:40.032Z,3.15
2023-03-11T10:39:06.918Z,3.85
2023-03-11T10:41:45.164Z,4.70
2023-03-11T10:44:11.991Z,4.95
2023-03-11T10:49:46.895Z,4.00
2023-03-11T10:52:14.373Z,4.00
2023-03-11T10:54:46.547Z,3.45
2023-03-11T10:57:29.094Z,3.55
2023-03-11T10:59:59.025Z,3.55
2023-03-11T11:02:53.111Z,4.22
2023-03-11T11:05:22.943Z,5.15
2023-03-11T11:08:17.310Z,4.80
2023-03-11T11:10:59.997Z,3.55
2023-03-11T11:13:30.941Z,4.55
2023-03-11T11:16:19.114Z,5.20
2023-03-11T11:18:50.097Z,6.03
2023-03-11T11:21:45.586Z,4.60
2023-03-11T11:24:29.276Z,4.72
2023-03-11T11:27:25.892Z,5.97
2023-03-11T11:30:25.787Z,4.53
2023-03-11T11:32:55.068Z,4.40
2023-03-11T11:35:25.009Z,4.00
2023-03-11T11:38:00.557Z,3.65
2023-03-11T11:40:32.956Z,4.10
2023-03-11T11:43:06.621Z,5.03
2023-03-11T11:45:39.866Z,3.88
2023-03-11T11:48:35.291Z,4.15
2023-03-11T11:51:06.698Z,4.15
2023-03-11T11:53:58.178Z,4.10
2023-03-11T11:56:25.995Z,4.22
2023-03-11T11:58:56.142Z,5.53
2023-03-11T12:01:40.495Z,5.15
2023-03-11T12:04:25.505Z,5.68
2023-03-11T12:07:11.235Z,3.03
2023-03-11T12:10:23.001Z,3.10
2023-03-11T12:13:06.346Z,2.75
2023-03-11T12:15:59.601Z,3.38
2023-03-11T12:18:35.543Z,4.53
2023-03-11T12:21:30.024Z,5.00
2023-03-11T12:24:12.924Z,3.63
2023-03-11T12:26:48.457Z,3.10
2023-03-11T12:29:44.296Z,4.38
2023-03-11T12:32:41.169Z,3.95
2023-03-11T12:35:26.648Z,4.63
2023-03-11T12:38:15.303Z,4.80
2023-03-11T12:41:05.564Z,6.30
2023-03-11T12:43:36.379Z,3.60
2023-03-11T12:46:12.268Z,2.60
2023-03-11T12:49:13.858Z,4.13
2023-03-11T12:51:51.125Z,6.90
2023-03-11T12:54:24.945Z,5.45
2023-03-11T12:57:01.575Z,5.70
2023-03-11T13:02:39.927Z,7.15
2023-03-11T13:05:24.354Z,4.60
2023-03-11T13:08:01.710Z,5.45
2023-03-11T13:10:37.392Z,4.03
2023-03-11T13:13:34.718Z,4.73
2023-03-11T13:18:45.522Z,3.35
2023-03-11T13:21:40.476Z,4.45
2023-03-11T13:24:19.366Z,3.60
2023-03-11T13:27:15.262Z,4.10
2023-03-11T13:29:57.945Z,4.07
2023-03-11T13:32:48.103Z,5.05
2023-03-11T13:35:57.363Z,4.68
2023-03-11T13:38:35.213Z,5.10
2023-03-11T13:41:05.885Z,7.30
2023-03-11T13:43:33.051Z,4.90
2023-03-11T13:46:11.911Z,4.53
2023-03-11T13:48:46.560Z,4.25
2023-03-11T13:51:18.515Z,4.15
2023-03-11T13:54:05.686Z,3.97
2023-03-11T13:59:36.557Z,3.47
2023-03-11T14:02:09.682Z,3.72
2023-03-11T14:04:40.831Z,3.03
2023-03-11T14:07:35.593Z,3.70
2023-03-11T14:10:24.198Z,2.67
2023-03-11T14:12:51.965Z,2.50
2023-03-11T14:15:27.147Z,2.47
2023-03-11T14:17:54.969Z,2.30
2023-03-11T14:20:25.729Z,2.45
2023-03-11T14:22:55.274Z,2.58
2023-03-11T14:25:31.779Z,3.05
2023-03-11T14:28:04.957Z,2.83
2023-03-11T14:30:34.643Z,2.53
2023-03-11T14:33:20.845Z,2.70
2023-03-11T14:36:03.730Z,3.50
2023-03-11T14:38:32.781Z,4.65
2023-03-11T14:41:15.682Z,5.20
2023-03-11T14:43:47.949Z,6.85
2023-03-11T14:46:28.192Z,7.22
2023-03-11T14:48:57.921Z,9.60
2023-03-11T14:51:32.197Z,11.30
2023-03-11T14:54:07.777Z,11.98
2023-03-11T14:56:40.469Z,11.37
2023-03-11T14:59:13.264Z,12.05
2023-03-11T15:01:45.645Z,12.82
2023-03-11T15:04:13.633Z,14.20
2023-03-11T15:06:44.120Z,15.05
2023-03-11T15:09:17.362Z,14.20
2023-03-11T15:11:53.216Z,12.38
2023-03-11T15:14:24.347Z,13.02
2023-03-11T15:16:52.715Z,13.63
2023-03-11T15:19:28.941Z,11.82
2023-03-11T15:22:00.111Z,9.25
2023-03-11T15:24:30.298Z,6.38
2023-03-11T15:27:02.793Z,5.22
2023-03-11T15:29:31.256Z,5.35
2023-03-11T15:31:59.015Z,5.70
2023-03-11T15:34:30.930Z,5.28
2023-03-11T15:37:04.901Z,7.20
2023-03-11T15:39:31.972Z,7.25
2023-03-11T15:42:08.536Z,8.75
2023-03-11T15:47:04.937Z,7.72
2023-03-11T15:49:31.931Z,10.40
2023-03-11T15:52:02.489Z,9.13
2023-03-11T15:54:29.976Z,9.55
2023-03-11T15:56:58.903Z,8.68
2023-03-11T15:59:26.661Z,9.32
2023-03-11T16:01:53.571Z,10.80
2023-03-11T16:04:39.427Z,12.88
2023-03-11T16:07:08.738Z,8.98
2023-03-11T16:09:35.763Z,7.75
2023-03-11T16:12:13.787Z,8.35
2023-03-11T16:14:40.783Z,12.88
2023-03-11T16:17:07.693Z,10.18
2023-03-11T16:19:34.862Z,10.65
2023-03-11T16:22:03.134Z,8.57
2023-03-11T16:24:30.070Z,8.38
2023-03-11T16:26:57.163Z,9.20
2023-03-11T16:29:24.317Z,10.25
2023-03-11T16:31:51.296Z,9.77
2023-03-11T16:34:19.752Z,8.60
2023-03-11T16:36:46.958Z,9.63
2023-03-11T16:39:14.785Z,11.50
2023-03-11T16:41:44.643Z,12.93
2023-03-11T16:44:30.998Z,12.10
2023-03-11T16:46:58.088Z,11.40
2023-03-11T16:49:25.200Z,10.40
2023-03-11T16:51:52.008Z,10.15
2023-03-11T16:54:19.124Z,11.35
2023-03-11T16:56:46.008Z,11.40
2023-03-11T16:59:13.009Z,10.68
2023-03-11T17:01:40.509Z,13.45
2023-03-11T17:04:08.052Z,9.88
2023-03-11T17:06:35.347Z,9.25
2023-03-11T17:09:02.499Z,9.80
2023-03-11T17:11:30.941Z,8.40
2023-03-11T17:14:10.047Z,9.48
2023-03-11T17:16:42.482Z,7.22
2023-03-11T17:19:09.401Z,8.48
2023-03-11T17:21:36.242Z,7.60
2023-03-11T17:24:03.364Z,8.40
2023-03-11T17:26:31.752Z,11.80
2023-03-11T17:28:59.280Z,11.75
2023-03-11T17:31:26.348Z,15.75
2023-03-11T17:34:11.801Z,15.50
2023-03-11T17:36:39.253Z,11.30
2023-03-11T17:39:06.421Z,10.77
2023-03-11T17:41:33.230Z,11.35
2023-03-11T17:44:00.541Z,11.13
2023-03-11T17:46:27.613Z,9.73
2023-03-11T17:48:54.996Z,10.35
2023-03-11T17:51:24.359Z,11.10
2023-03-11T17:53:52.862Z,12.40
2023-03-11T17:56:23.713Z,12.85
2023-03-11T17:58:50.984Z,14.65
2023-03-11T18:01:21.875Z,16.00
2023-03-11T18:03:49.943Z,15.02
2023-03-11T18:06:20.130Z,15.55
2023-03-11T18:08:47.069Z,15.10
2023-03-11T18:11:18.900Z,14.27
2023-03-11T18:13:46.679Z,14.07
2023-03-11T18:16:22.577Z,14.27
2023-03-11T18:18:50.081Z,13.57
2023-03-11T18:21:22.452Z,12.90
2023-03-11T18:23:49.643Z,12.82
2023-03-11T18:26:18.903Z,12.02
2023-03-11T18:28:46.128Z,11.75
2023-03-11T18:31:15.880Z,10.65
2023-03-11T18:33:49.443Z,9.02
2023-03-11T18:36:19.665Z,8.73
2023-03-11T18:38:46.705Z,7.75
2023-03-11T18:41:14.105Z,8.30
2023-03-11T18:43:41.225Z,7.93
2023-03-11T18:46:10.034Z,8.48
2023-03-11T18:48:38.393Z,7.68
2023-03-11T18:51:07.332Z,7.93
2023-03-11T18:53:34.653Z,7.80
2023-03-11T18:56:04.554Z,7.38
2023-03-11T18:58:31.734Z,9.32
2023-03-11T19:01:12.369Z,7.93
2023-03-11T19:03:39.760Z,7.93
2023-03-11T19:06:11.080Z,8.23
2023-03-11T19:08:38.547Z,7.80
2023-03-11T19:11:14.269Z,7.38
2023-03-11T19:13:47.029Z,7.57
2023-03-11T19:16:17.860Z,6.95
2023-03-11T19:18:45.721Z,6.38
2023-03-11T19:21:14.937Z,6.32
2023-03-11T19:23:41.992Z,7.53
2023-03-11T19:26:09.627Z,5.88
2023-03-11T19:28:36.635Z,6.18
2023-03-11T19:31:04.733Z,6.57
2023-03-11T19:33:32.102Z,5.43
2023-03-11T19:36:01.424Z,5.60
2023-03-11T19:38:29.361Z,5.70
2023-03-11T19:41:12.077Z,5.85
2023-03-11T19:43:38.914Z,6.10
2023-03-11T19:46:07.315Z,6.60
2023-03-11T19:48:34.712Z,6.03
2023-03-11T19:51:06.061Z,6.20
2023-03-11T19:53:34.586Z,5.30
2023-03-11T19:56:05.066Z,6.57
2023-03-11T19:58:32.319Z,5.72
2023-03-11T20:00:59.731Z,5.60
2023-03-11T20:03:28.370Z,4.63
2023-03-11T20:05:58.110Z,5.13
2023-03-11T20:08:26.540Z,4.80
2023-03-11T20:10:54.613Z,4.50
2023-03-11T20:13:22.476Z,3.90
2023-03-11T20:15:50.322Z,5.30
2023-03-11T20:18:18.338Z,5.20
2023-03-11T20:20:47.177Z,5.85
2023-03-11T20:23:14.608Z,5.32
2023-03-11T20:25:44.688Z,5.30
2023-03-11T20:28:11.719Z,5.30
2023-03-11T20:30:39.299Z,5.05
2023-03-11T20:33:11.101Z,4.80
2023-03-11T20:35:38.119Z,5.30
2023-03-11T20:38:05.165Z,5.10
2023-03-11T20:40:32.255Z,5.57
2023-03-11T20:43:00.161Z,6.03
2023-03-11T20:45:27.126Z,6.72
2023-03-11T20:47:54.233Z,6.32
2023-03-11T20:50:22.341Z,8.23
2023-03-11T20:52:51.055Z,7.13
2023-03-11T20:55:18.480Z,6.82
2023-03-11T20:57:45.420Z,7.05
2023-03-11T21:00:14.170Z,6.60
2023-03-11T21:03:02.479Z,7.07
2023-03-11T21:05:29.681Z,6.75
2023-03-11T21:08:15.240Z,7.95
2023-03-11T21:10:42.720Z,6.60
2023-03-11T21:13:09.769Z,6.10
2023-03-11T21:15:36.955Z,6.97
2023-03-11T21:18:04.352Z,7.88
2023-03-11T21:20:31.546Z,7.97
2023-03-11T21:22:58.603Z,6.70
2023-03-11T21:25:25.642Z,5.90
2023-03-11T21:27:52.583Z,6.05
2023-03-11T21:30:19.524Z,5.15
2023-03-11T21:32:46.656Z,4.80
2023-03-11T21:35:13.919Z,4.97
2023-03-11T21:37:42.176Z,4.57
2023-03-11T21:40:09.926Z,5.47
2023-03-11T21:42:36.954Z,5.28
2023-03-11T21:45:04.152Z,5.40
2023-03-11T21:47:31.089Z,5.00
2023-03-11T21:49:58.084Z,5.43
2023-03-11T21:52:25.199Z,4.40
2023-03-11T21:54:52.076Z,4.32
2023-03-11T21:57:20.039Z,4.47
2023-03-11T21:59:47.155Z,4.60
2023-03-11T22:02:15.996Z,4.10
2023-03-11T22:04:46.635Z,4.25
2023-03-11T22:07:13.709Z,3.85
2023-03-11T22:09:40.754Z,4.38
2023-03-11T22:12:07.973Z,3.90
2023-03-11T22:14:35.127Z,5.32
2023-03-11T22:17:03.581Z,4.30
2023-03-11T22:19:30.646Z,4.22
2023-03-11T22:21:57.677Z,4.78
2023-03-11T22:24:24.686Z,4.60
2023-03-11T22:26:51.584Z,4.50
2023-03-11T22:29:18.654Z,4.22
2023-03-11T22:31:45.779Z,4.47
2023-03-11T22:34:12.599Z,4.10
2023-03-11T22:36:39.500Z,3.92
2023-03-11T22:39:06.636Z,4.15
2023-03-11T22:41:33.821Z,4.03
2023-03-11T22:44:00.971Z,3.90
2023-03-11T22:46:29.057Z,4.32
2023-03-11T22:48:56.142Z,4.78
2023-03-11T22:51:23.402Z,4.63
2023-03-11T22:53:50.345Z,4.82
2023-03-11T22:56:18.501Z,4.05
2023-03-11T22:58:45.960Z,4.95
2023-03-11T23:01:13.534Z,4.80
2023-03-11T23:03:42.638Z,5.07
2023-03-11T23:06:13.898Z,4.53
2023-03-11T23:08:40.759Z,4.57
2023-03-11T23:11:10.553Z,4.32
2023-03-11T23:13:38.458Z,4.57
2023-03-11T23:16:14.757Z,4.25
2023-03-11T23:18:42.586Z,4.22
2023-03-11T23:21:24.790Z,4.50
2023-03-11T23:23:52.503Z,4.40
2023-03-11T23:26:20.614Z,4.45
2023-03-11T23:28:48.905Z,4.13
2023-03-11T23:31:15.973Z,4.38
2023-03-11T23:33:43.083Z,4.30
2023-03-11T23:36:13.654Z,3.53
2023-03-11T23:38:42.375Z,3.97
2023-03-11T23:41:12.634Z,3.63
2023-03-11T23:43:40.438Z,4.05
2023-03-11T23:46:08.402Z,3.53
2023-03-11T23:48:35.393Z,3.50
2023-03-11T23:51:02.569Z,3.70
2023-03-11T23:53:29.527Z,3.30
2023-03-11T23:55:56.498Z,3.42
2023-03-11T23:58:23.681Z,3.13
